PWSweather.com
Personal Weather Stations
Station Observations
RECCOWX160
ReccoIT 16036

ReccoIT 16036

Lat: 44.3672002, Lon: 9.14736240000002

Elevation: 118

Station Type: Oregon Scientific WMR88

http://www.reccometeo.it

Latest ConditionsUpdated 1:00:02 PM GMT+01:01 Sunday, Oct 22, 2017
Currently Today's Max Today's Min Today's Average
Temperature 68.5°F20.3°C 69.8°F21.0°C 67.6°F19.8°C 68.4°F20.2°C
Dew Point 57.1°F13.9°C 62.6°F17.0°C 57.1°F13.9°C 60.9°F16.1°C
Winds 1.2 mph NNW1.9 kmh NNW 2.3 mph NNW3.7 kmh NNW - 0.5 mph 0.8 kmh
Wind Gusts 1.2 mph1.9 kmh 3.5 mph5.6 kmh - -
Humidity 67% 82% 67% 77%
Pressure 29.71 in1006.1 mb 29.88 in1011.9 mb 29.68 in1005.1 mb -
Hour Temp Dew Point Humidity Winds Wind Gusts Pressure Precip Precip Rate Daily Precip Total
01:00 PM 68.5°F20.3°C 57.1°F13.9°C 67% 1.2 mph NNW1.9 kmh NNW 1.2 mph1.9 kmh 29.71 in1006.1 mb - 0.00 in0.0 mm 0.00 in0.0 mm
12:45 PM 68.4°F20.2°C 57.4°F14.1°C 68% Calm Calm -- 29.68 in1005.1 mb - 0.00 in0.0 mm 0.00 in0.0 mm
12:30 PM 68.7°F20.4°C 58.5°F14.7°C 70% Calm Calm -- 29.71 in1006.1 mb - 0.00 in0.0 mm 0.00 in0.0 mm
12:15 PM 69.1°F20.6°C 59.3°F15.2°C 71% 1.2 mph NE1.9 kmh NE 1.2 mph1.9 kmh 29.71 in1006.1 mb - 0.00 in0.0 mm 0.00 in0.0 mm
12:00 PM 69.1°F20.6°C 59.3°F15.2°C 71% Calm Calm -- 29.71 in1006.1 mb - 0.00 in0.0 mm 0.00 in0.0 mm
11:45 AM 69.4°F20.8°C 60.0°F15.6°C 72% Calm Calm -- 29.71 in1006.1 mb - 0.00 in0.0 mm 0.00 in0.0 mm
11:30 AM 69.8°F21.0°C 60.8°F16.0°C 73% 1.2 mph S1.9 kmh S 1.2 mph1.9 kmh 29.71 in1006.1 mb - 0.00 in0.0 mm 0.00 in0.0 mm
11:15 AM 69.3°F20.7°C 60.2°F15.7°C 73% Calm Calm -- 29.74 in1007.1 mb - 0.00 in0.0 mm 0.00 in0.0 mm
11:00 AM 69.3°F20.7°C 60.6°F15.9°C 74% Calm Calm -- 29.74 in1007.1 mb - 0.00 in0.0 mm 0.00 in0.0 mm
10:45 AM 69.3°F20.7°C 60.6°F15.9°C 74% Calm Calm -- 29.74 in1007.1 mb - 0.00 in0.0 mm 0.00 in0.0 mm
10:30 AM 69.3°F20.7°C 60.3°F15.7°C 73% Calm Calm -- 29.74 in1007.1 mb - 0.00 in0.0 mm 0.00 in0.0 mm
10:15 AM 69.3°F20.7°C 60.3°F15.7°C 73% Calm Calm -- 29.74 in1007.1 mb - 0.00 in0.0 mm 0.00 in0.0 mm
10:00 AM 69.3°F20.7°C 60.2°F15.7°C 73% Calm Calm -- 29.77 in1008.1 mb - 0.00 in0.0 mm 0.00 in0.0 mm
09:45 AM 68.7°F20.4°C 59.7°F15.4°C 73% 2.3 mph N3.7 kmh N 2.3 mph3.7 kmh 29.77 in1008.1 mb - 0.00 in0.0 mm 0.00 in0.0 mm
09:30 AM 68.4°F20.2°C 59.7°F15.4°C 74% Calm Calm -- 29.77 in1008.1 mb - 0.00 in0.0 mm 0.00 in0.0 mm
09:15 AM 68.4°F20.2°C 59.7°F15.4°C 74% Calm Calm 1.2 mph1.9 kmh 29.77 in1008.1 mb - 0.00 in0.0 mm 0.00 in0.0 mm
09:00 AM 68.4°F20.2°C 60.1°F15.6°C 75% Calm Calm -- 29.77 in1008.1 mb - 0.00 in0.0 mm 0.00 in0.0 mm
08:45 AM 68.2°F20.1°C 60.0°F15.6°C 75% 1.2 mph ENE1.9 kmh ENE 1.2 mph1.9 kmh 29.77 in1008.1 mb - 0.00 in0.0 mm 0.00 in0.0 mm
08:30 AM 68.2°F20.1°C 60.0°F15.6°C 75% Calm Calm -- 29.77 in1008.1 mb - 0.00 in0.0 mm 0.00 in0.0 mm
08:15 AM 68.0°F20.0°C 59.8°F15.4°C 75% 1.2 mph NNW1.9 kmh NNW 2.3 mph3.7 kmh 29.77 in1008.1 mb - 0.00 in0.0 mm 0.00 in0.0 mm
08:00 AM 67.8°F19.9°C 60.3°F15.7°C 77% Calm Calm -- 29.77 in1008.1 mb - 0.00 in0.0 mm 0.00 in0.0 mm
07:45 AM 67.6°F19.8°C 60.2°F15.7°C 77% Calm Calm -- 29.77 in1008.1 mb - 0.00 in0.0 mm 0.00 in0.0 mm
07:30 AM 67.6°F19.8°C 60.2°F15.7°C 77% 1.2 mph SW1.9 kmh SW 1.2 mph1.9 kmh 29.77 in1008.1 mb - 0.00 in0.0 mm 0.00 in0.0 mm
07:15 AM 67.8°F19.9°C 60.3°F15.7°C 77% Calm Calm -- 29.77 in1008.1 mb - 0.00 in0.0 mm 0.00 in0.0 mm
07:00 AM 67.8°F19.9°C 60.3°F15.7°C 77% Calm Calm -- 29.77 in1008.1 mb - 0.00 in0.0 mm 0.00 in0.0 mm
06:45 AM 68.0°F20.0°C 60.5°F15.8°C 77% Calm Calm -- 29.77 in1008.1 mb - 0.00 in0.0 mm 0.00 in0.0 mm
06:30 AM 67.8°F19.9°C 60.7°F15.9°C 78% Calm Calm -- 29.77 in1008.1 mb - 0.00 in0.0 mm 0.00 in0.0 mm
06:15 AM 68.0°F20.0°C 60.9°F16.1°C 78% Calm Calm -- 29.77 in1008.1 mb - 0.00 in0.0 mm 0.00 in0.0 mm
06:00 AM 67.8°F19.9°C 61.1°F16.2°C 79% Calm Calm -- 29.77 in1008.1 mb - 0.00 in0.0 mm 0.00 in0.0 mm
05:45 AM 67.8°F19.9°C 61.0°F16.1°C 79% Calm Calm -- 29.80 in1009.1 mb - 0.00 in0.0 mm 0.00 in0.0 mm
05:30 AM 67.8°F19.9°C 61.4°F16.3°C 80% Calm Calm -- 29.80 in1009.1 mb - 0.00 in0.0 mm 0.00 in0.0 mm
05:15 AM 67.8°F19.9°C 61.4°F16.3°C 80% Calm Calm -- 29.80 in1009.1 mb - 0.00 in0.0 mm 0.00 in0.0 mm
05:00 AM 67.8°F19.9°C 61.4°F16.3°C 80% Calm Calm -- 29.80 in1009.1 mb - 0.00 in0.0 mm 0.00 in0.0 mm
04:45 AM 68.0°F20.0°C 61.6°F16.4°C 80% Calm Calm -- 29.80 in1009.1 mb - 0.00 in0.0 mm 0.00 in0.0 mm
04:30 AM 68.0°F20.0°C 61.9°F16.6°C 81% Calm Calm -- 29.80 in1009.1 mb - 0.00 in0.0 mm 0.00 in0.0 mm
04:15 AM 68.0°F20.0°C 61.9°F16.6°C 81% Calm Calm -- 29.80 in1009.1 mb - 0.00 in0.0 mm 0.00 in0.0 mm
04:00 AM 68.0°F20.0°C 61.9°F16.6°C 81% Calm Calm -- 29.80 in1009.1 mb - 0.00 in0.0 mm 0.00 in0.0 mm
03:45 AM 68.0°F20.0°C 61.9°F16.6°C 81% Calm Calm -- 29.82 in1009.8 mb - 0.00 in0.0 mm 0.00 in0.0 mm
03:30 AM 68.0°F20.0°C 61.9°F16.6°C 81% 1.2 mph N1.9 kmh N 1.2 mph1.9 kmh 29.82 in1009.8 mb - 0.00 in0.0 mm 0.00 in0.0 mm
03:15 AM 68.0°F20.0°C 62.3°F16.8°C 82% Calm Calm -- 29.82 in1009.8 mb - 0.00 in0.0 mm 0.00 in0.0 mm
03:00 AM 68.1°F20.1°C 62.4°F16.9°C 82% Calm Calm -- 29.82 in1009.8 mb - 0.00 in0.0 mm 0.00 in0.0 mm
02:45 AM 68.2°F20.1°C 62.1°F16.7°C 81% Calm Calm -- 29.86 in1011.2 mb - 0.00 in0.0 mm 0.00 in0.0 mm
02:30 AM 68.2°F20.1°C 62.1°F16.7°C 81% 1.2 mph E1.9 kmh E 2.3 mph3.7 kmh 29.86 in1011.2 mb - 0.00 in0.0 mm 0.00 in0.0 mm
02:15 AM 68.4°F20.2°C 62.3°F16.8°C 81% 1.2 mph SSE1.9 kmh SSE 1.2 mph1.9 kmh 29.86 in1011.2 mb - 0.00 in0.0 mm 0.00 in0.0 mm
02:00 AM 68.4°F20.2°C 62.6°F17.0°C 82% 1.2 mph ENE1.9 kmh ENE 2.3 mph3.7 kmh 29.86 in1011.2 mb - 0.00 in0.0 mm 0.00 in0.0 mm
01:45 AM 68.4°F20.2°C 62.6°F17.0°C 82% Calm Calm 2.3 mph3.7 kmh 29.86 in1011.2 mb - 0.00 in0.0 mm 0.00 in0.0 mm
01:30 AM 68.4°F20.2°C 62.6°F17.0°C 82% 1.2 mph SW1.9 kmh SW 2.3 mph3.7 kmh 29.88 in1011.9 mb - 0.00 in0.0 mm 0.00 in0.0 mm
01:15 AM 68.4°F20.2°C 62.6°F17.0°C 82% 2.3 mph N3.7 kmh N 2.3 mph3.7 kmh 29.88 in1011.9 mb - 0.00 in0.0 mm 0.00 in0.0 mm
01:00 AM 68.4°F20.2°C 62.6°F17.0°C 82% 1.2 mph NW1.9 kmh NW 2.3 mph3.7 kmh 29.88 in1011.9 mb - 0.00 in0.0 mm 0.00 in0.0 mm
12:45 AM 68.4°F20.2°C 62.6°F17.0°C 82% 1.2 mph E1.9 kmh E 2.3 mph3.7 kmh 29.88 in1011.9 mb - 0.00 in0.0 mm 0.00 in0.0 mm
12:30 AM 68.4°F20.2°C 62.6°F17.0°C 82% 2.3 mph NE3.7 kmh NE 2.3 mph3.7 kmh 29.88 in1011.9 mb - 0.00 in0.0 mm 0.00 in0.0 mm
12:15 AM 68.4°F20.2°C 62.3°F16.8°C 81% 2.3 mph NNW3.7 kmh NNW 2.3 mph3.7 kmh 29.88 in1011.9 mb - 0.00 in0.0 mm 0.00 in0.0 mm
12:00 AM 68.4°F20.2°C 62.3°F16.8°C 81% 1.2 mph E1.9 kmh E 3.5 mph5.6 kmh 29.88 in1011.9 mb - 0.00 in0.0 mm 0.00 in0.0 mm